sensor_id;sensor_type;location;lat;lon;timestamp;P1;durP1;ratioP1;P2;durP2;ratioP2
21979;SDS011;11154;48.558;9.234;2023-04-25T00:00:15;3.95;;;2.40;;
21979;SDS011;11154;48.558;9.234;2023-04-25T00:02:17;4.90;;;2.17;;
21979;SDS011;11154;48.558;9.234;2023-04-25T00:04:19;5.03;;;2.60;;
21979;SDS011;11154;48.558;9.234;2023-04-25T00:06:21;3.55;;;2.33;;
21979;SDS011;11154;48.558;9.234;2023-04-25T00:08:26;5.10;;;2.60;;
21979;SDS011;11154;48.558;9.234;2023-04-25T00:10:27;4.57;;;2.70;;
21979;SDS011;11154;48.558;9.234;2023-04-25T00:12:29;4.53;;;2.88;;
21979;SDS011;11154;48.558;9.234;2023-04-25T00:14:32;5.10;;;3.05;;
21979;SDS011;11154;48.558;9.234;2023-04-25T00:16:35;4.53;;;3.03;;
21979;SDS011;11154;48.558;9.234;2023-04-25T00:18:37;5.40;;;3.17;;
21979;SDS011;11154;48.558;9.234;2023-04-25T00:20:38;5.32;;;2.70;;
21979;SDS011;11154;48.558;9.234;2023-04-25T00:22:40;4.78;;;2.60;;
21979;SDS011;11154;48.558;9.234;2023-04-25T00:24:42;3.20;;;2.20;;
21979;SDS011;11154;48.558;9.234;2023-04-25T00:26:43;4.57;;;2.50;;
21979;SDS011;11154;48.558;9.234;2023-04-25T00:28:45;3.22;;;2.10;;
21979;SDS011;11154;48.558;9.234;2023-04-25T00:30:48;2.75;;;2.38;;
21979;SDS011;11154;48.558;9.234;2023-04-25T00:32:50;2.58;;;2.03;;
21979;SDS011;11154;48.558;9.234;2023-04-25T00:34:51;2.78;;;2.10;;
21979;SDS011;11154;48.558;9.234;2023-04-25T00:36:53;3.17;;;2.10;;
21979;SDS011;11154;48.558;9.234;2023-04-25T00:38:55;3.53;;;2.17;;
21979;SDS011;11154;48.558;9.234;2023-04-25T00:40:57;4.35;;;2.38;;
21979;SDS011;11154;48.558;9.234;2023-04-25T00:42:58;4.57;;;2.20;;
21979;SDS011;11154;48.558;9.234;2023-04-25T00:45:00;3.47;;;1.90;;
21979;SDS011;11154;48.558;9.234;2023-04-25T00:47:04;4.78;;;2.10;;
21979;SDS011;11154;48.558;9.234;2023-04-25T00:49:06;2.97;;;2.05;;
21979;SDS011;11154;48.558;9.234;2023-04-25T00:51:15;4.38;;;2.53;;
21979;SDS011;11154;48.558;9.234;2023-04-25T00:53:20;5.22;;;2.35;;
21979;SDS011;11154;48.558;9.234;2023-04-25T00:55:22;4.53;;;2.35;;
21979;SDS011;11154;48.558;9.234;2023-04-25T00:57:24;6.93;;;2.30;;
21979;SDS011;11154;48.558;9.234;2023-04-25T00:59:26;2.72;;;1.90;;
21979;SDS011;11154;48.558;9.234;2023-04-25T01:01:29;3.28;;;2.03;;
21979;SDS011;11154;48.558;9.234;2023-04-25T01:03:33;3.92;;;2.28;;
21979;SDS011;11154;48.558;9.234;2023-04-25T01:05:40;11.70;;;7.30;;
21979;SDS011;11154;48.558;9.234;2023-04-25T01:07:43;13.27;;;7.40;;
21979;SDS011;11154;48.558;9.234;2023-04-25T01:09:45;8.65;;;5.15;;
21979;SDS011;11154;48.558;9.234;2023-04-25T01:11:47;6.03;;;2.78;;
21979;SDS011;11154;48.558;9.234;2023-04-25T01:13:49;4.60;;;2.30;;
21979;SDS011;11154;48.558;9.234;2023-04-25T01:15:51;3.90;;;2.22;;
21979;SDS011;11154;48.558;9.234;2023-04-25T01:17:54;2.30;;;1.85;;
21979;SDS011;11154;48.558;9.234;2023-04-25T01:19:57;5.80;;;2.67;;
21979;SDS011;11154;48.558;9.234;2023-04-25T01:22:00;4.95;;;2.20;;
21979;SDS011;11154;48.558;9.234;2023-04-25T01:24:02;4.30;;;2.65;;
21979;SDS011;11154;48.558;9.234;2023-04-25T01:26:04;5.13;;;2.47;;
21979;SDS011;11154;48.558;9.234;2023-04-25T01:28:07;7.38;;;2.50;;
21979;SDS011;11154;48.558;9.234;2023-04-25T01:30:09;4.10;;;2.38;;
21979;SDS011;11154;48.558;9.234;2023-04-25T01:32:11;6.90;;;2.22;;
21979;SDS011;11154;48.558;9.234;2023-04-25T01:34:14;3.35;;;2.25;;
21979;SDS011;11154;48.558;9.234;2023-04-25T01:36:16;2.38;;;1.80;;
21979;SDS011;11154;48.558;9.234;2023-04-25T01:38:20;3.10;;;2.05;;
21979;SDS011;11154;48.558;9.234;2023-04-25T01:40:21;5.32;;;2.13;;
21979;SDS011;11154;48.558;9.234;2023-04-25T01:42:25;4.50;;;2.80;;
21979;SDS011;11154;48.558;9.234;2023-04-25T01:44:26;4.05;;;1.90;;
21979;SDS011;11154;48.558;9.234;2023-04-25T01:46:28;5.07;;;2.30;;
21979;SDS011;11154;48.558;9.234;2023-04-25T01:48:30;2.72;;;1.90;;
21979;SDS011;11154;48.558;9.234;2023-04-25T01:50:32;4.40;;;2.17;;
21979;SDS011;11154;48.558;9.234;2023-04-25T01:52:34;3.63;;;1.80;;
21979;SDS011;11154;48.558;9.234;2023-04-25T01:54:37;3.95;;;2.20;;
21979;SDS011;11154;48.558;9.234;2023-04-25T01:56:49;3.78;;;2.00;;
21979;SDS011;11154;48.558;9.234;2023-04-25T01:58:51;3.25;;;2.22;;
21979;SDS011;11154;48.558;9.234;2023-04-25T02:00:53;3.80;;;2.05;;
21979;SDS011;11154;48.558;9.234;2023-04-25T02:02:57;4.63;;;2.45;;
21979;SDS011;11154;48.558;9.234;2023-04-25T02:04:59;3.60;;;2.35;;
21979;SDS011;11154;48.558;9.234;2023-04-25T02:07:01;3.08;;;2.33;;
21979;SDS011;11154;48.558;9.234;2023-04-25T02:09:02;4.00;;;2.40;;
21979;SDS011;11154;48.558;9.234;2023-04-25T02:11:06;2.72;;;1.92;;
21979;SDS011;11154;48.558;9.234;2023-04-25T02:13:07;3.13;;;2.05;;
21979;SDS011;11154;48.558;9.234;2023-04-25T02:15:09;5.25;;;2.33;;
21979;SDS011;11154;48.558;9.234;2023-04-25T02:17:11;3.78;;;2.05;;
21979;SDS011;11154;48.558;9.234;2023-04-25T02:19:13;3.58;;;2.08;;
21979;SDS011;11154;48.558;9.234;2023-04-25T02:21:15;2.80;;;1.85;;
21979;SDS011;11154;48.558;9.234;2023-04-25T02:23:16;2.92;;;1.92;;
21979;SDS011;11154;48.558;9.234;2023-04-25T02:25:19;3.80;;;2.22;;
21979;SDS011;11154;48.558;9.234;2023-04-25T02:27:22;3.72;;;2.20;;
21979;SDS011;11154;48.558;9.234;2023-04-25T02:29:24;4.20;;;2.08;;
21979;SDS011;11154;48.558;9.234;2023-04-25T02:31:25;3.55;;;2.17;;
21979;SDS011;11154;48.558;9.234;2023-04-25T02:33:27;2.35;;;2.13;;
21979;SDS011;11154;48.558;9.234;2023-04-25T02:35:29;3.17;;;2.47;;
21979;SDS011;11154;48.558;9.234;2023-04-25T02:37:30;3.58;;;1.95;;
21979;SDS011;11154;48.558;9.234;2023-04-25T02:39:32;3.50;;;1.92;;
21979;SDS011;11154;48.558;9.234;2023-04-25T02:41:34;4.13;;;2.08;;
21979;SDS011;11154;48.558;9.234;2023-04-25T02:43:38;4.25;;;2.20;;
21979;SDS011;11154;48.558;9.234;2023-04-25T02:45:40;4.35;;;2.30;;
21979;SDS011;11154;48.558;9.234;2023-04-25T02:47:41;3.25;;;2.00;;
21979;SDS011;11154;48.558;9.234;2023-04-25T02:49:43;4.50;;;1.98;;
21979;SDS011;11154;48.558;9.234;2023-04-25T02:51:45;3.53;;;2.03;;
21979;SDS011;11154;48.558;9.234;2023-04-25T02:53:46;3.50;;;2.15;;
21979;SDS011;11154;48.558;9.234;2023-04-25T02:55:48;5.05;;;1.75;;
21979;SDS011;11154;48.558;9.234;2023-04-25T02:57:50;4.88;;;1.52;;
21979;SDS011;11154;48.558;9.234;2023-04-25T02:59:53;3.88;;;2.33;;
21979;SDS011;11154;48.558;9.234;2023-04-25T03:01:54;4.95;;;2.00;;
21979;SDS011;11154;48.558;9.234;2023-04-25T03:03:56;3.33;;;1.77;;
21979;SDS011;11154;48.558;9.234;2023-04-25T03:05:58;2.28;;;1.80;;
21979;SDS011;11154;48.558;9.234;2023-04-25T03:07:59;1.95;;;1.45;;
21979;SDS011;11154;48.558;9.234;2023-04-25T03:10:01;3.75;;;1.73;;
21979;SDS011;11154;48.558;9.234;2023-04-25T03:12:03;8.23;;;1.60;;
21979;SDS011;11154;48.558;9.234;2023-04-25T03:14:05;3.55;;;1.80;;
21979;SDS011;11154;48.558;9.234;2023-04-25T03:16:08;5.00;;;2.08;;
21979;SDS011;11154;48.558;9.234;2023-04-25T03:18:10;3.35;;;2.00;;
21979;SDS011;11154;48.558;9.234;2023-04-25T03:20:11;3.00;;;1.50;;
21979;SDS011;11154;48.558;9.234;2023-04-25T03:22:13;3.60;;;1.75;;
21979;SDS011;11154;48.558;9.234;2023-04-25T03:24:15;1.88;;;1.35;;
21979;SDS011;11154;48.558;9.234;2023-04-25T03:26:16;3.80;;;1.52;;
21979;SDS011;11154;48.558;9.234;2023-04-25T03:28:18;2.45;;;1.60;;
21979;SDS011;11154;48.558;9.234;2023-04-25T03:30:20;3.42;;;1.50;;
21979;SDS011;11154;48.558;9.234;2023-04-25T03:32:23;6.20;;;1.85;;
21979;SDS011;11154;48.558;9.234;2023-04-25T03:34:25;4.10;;;1.55;;
21979;SDS011;11154;48.558;9.234;2023-04-25T03:36:27;2.08;;;1.40;;
21979;SDS011;11154;48.558;9.234;2023-04-25T03:38:28;2.15;;;1.60;;
21979;SDS011;11154;48.558;9.234;2023-04-25T03:40:31;2.85;;;1.58;;
21979;SDS011;11154;48.558;9.234;2023-04-25T03:42:32;4.65;;;2.10;;
21979;SDS011;11154;48.558;9.234;2023-04-25T03:44:34;4.63;;;2.17;;
21979;SDS011;11154;48.558;9.234;2023-04-25T03:46:35;3.40;;;1.92;;
21979;SDS011;11154;48.558;9.234;2023-04-25T03:48:39;3.58;;;2.17;;
21979;SDS011;11154;48.558;9.234;2023-04-25T03:50:40;3.08;;;1.67;;
21979;SDS011;11154;48.558;9.234;2023-04-25T03:52:42;4.03;;;1.58;;
21979;SDS011;11154;48.558;9.234;2023-04-25T03:54:44;3.60;;;1.83;;
21979;SDS011;11154;48.558;9.234;2023-04-25T03:56:46;4.20;;;1.80;;
21979;SDS011;11154;48.558;9.234;2023-04-25T03:58:48;3.28;;;1.67;;
21979;SDS011;11154;48.558;9.234;2023-04-25T04:00:50;3.22;;;1.73;;
21979;SDS011;11154;48.558;9.234;2023-04-25T04:02:51;4.57;;;1.80;;
21979;SDS011;11154;48.558;9.234;2023-04-25T04:04:55;3.45;;;1.70;;
21979;SDS011;11154;48.558;9.234;2023-04-25T04:06:57;4.95;;;1.80;;
21979;SDS011;11154;48.558;9.234;2023-04-25T04:08:59;2.63;;;1.67;;
21979;SDS011;11154;48.558;9.234;2023-04-25T04:11:01;3.30;;;1.40;;
21979;SDS011;11154;48.558;9.234;2023-04-25T04:13:03;2.30;;;1.80;;
21979;SDS011;11154;48.558;9.234;2023-04-25T04:15:05;3.90;;;1.75;;
21979;SDS011;11154;48.558;9.234;2023-04-25T04:17:08;6.95;;;2.40;;
21979;SDS011;11154;48.558;9.234;2023-04-25T04:19:09;3.22;;;2.00;;
21979;SDS011;11154;48.558;9.234;2023-04-25T04:21:12;5.55;;;1.75;;
21979;SDS011;11154;48.558;9.234;2023-04-25T04:23:15;2.60;;;1.40;;
21979;SDS011;11154;48.558;9.234;2023-04-25T04:25:16;3.45;;;1.83;;
21979;SDS011;11154;48.558;9.234;2023-04-25T04:27:18;2.10;;;1.38;;
21979;SDS011;11154;48.558;9.234;2023-04-25T04:29:21;2.90;;;1.80;;
21979;SDS011;11154;48.558;9.234;2023-04-25T04:31:23;3.92;;;1.50;;
21979;SDS011;11154;48.558;9.234;2023-04-25T04:33:24;3.92;;;1.70;;
21979;SDS011;11154;48.558;9.234;2023-04-25T04:35:26;2.55;;;1.50;;
21979;SDS011;11154;48.558;9.234;2023-04-25T04:37:29;2.17;;;1.60;;
21979;SDS011;11154;48.558;9.234;2023-04-25T04:39:31;8.45;;;1.70;;
21979;SDS011;11154;48.558;9.234;2023-04-25T04:41:33;3.08;;;1.75;;
21979;SDS011;11154;48.558;9.234;2023-04-25T04:43:34;5.05;;;1.85;;
21979;SDS011;11154;48.558;9.234;2023-04-25T04:45:36;4.10;;;2.13;;
21979;SDS011;11154;48.558;9.234;2023-04-25T04:47:40;3.40;;;1.80;;
21979;SDS011;11154;48.558;9.234;2023-04-25T04:49:41;5.25;;;2.05;;
21979;SDS011;11154;48.558;9.234;2023-04-25T04:51:44;3.65;;;1.80;;
21979;SDS011;11154;48.558;9.234;2023-04-25T04:53:48;4.88;;;2.00;;
21979;SDS011;11154;48.558;9.234;2023-04-25T04:55:50;7.38;;;1.70;;
21979;SDS011;11154;48.558;9.234;2023-04-25T04:57:51;4.97;;;1.67;;
21979;SDS011;11154;48.558;9.234;2023-04-25T04:59:53;4.20;;;1.77;;
21979;SDS011;11154;48.558;9.234;2023-04-25T05:01:55;3.97;;;1.88;;
21979;SDS011;11154;48.558;9.234;2023-04-25T05:03:57;4.30;;;1.80;;
21979;SDS011;11154;48.558;9.234;2023-04-25T05:06:00;2.78;;;1.52;;
21979;SDS011;11154;48.558;9.234;2023-04-25T05:08:02;2.83;;;1.77;;
21979;SDS011;11154;48.558;9.234;2023-04-25T05:10:06;2.58;;;1.63;;
21979;SDS011;11154;48.558;9.234;2023-04-25T05:12:08;5.82;;;2.15;;
21979;SDS011;11154;48.558;9.234;2023-04-25T05:14:10;2.05;;;1.75;;
21979;SDS011;11154;48.558;9.234;2023-04-25T05:16:12;2.50;;;1.77;;
21979;SDS011;11154;48.558;9.234;2023-04-25T05:18:14;7.03;;;2.25;;
21979;SDS011;11154;48.558;9.234;2023-04-25T05:20:15;3.40;;;1.70;;
21979;SDS011;11154;48.558;9.234;2023-04-25T05:22:19;4.50;;;2.10;;
21979;SDS011;11154;48.558;9.234;2023-04-25T05:24:20;3.45;;;2.00;;
21979;SDS011;11154;48.558;9.234;2023-04-25T05:26:23;2.28;;;1.67;;
21979;SDS011;11154;48.558;9.234;2023-04-25T05:28:25;3.05;;;1.92;;
21979;SDS011;11154;48.558;9.234;2023-04-25T05:30:27;6.88;;;1.90;;
21979;SDS011;11154;48.558;9.234;2023-04-25T05:32:29;3.78;;;2.10;;
21979;SDS011;11154;48.558;9.234;2023-04-25T05:34:30;5.72;;;2.33;;
21979;SDS011;11154;48.558;9.234;2023-04-25T05:36:32;3.53;;;2.00;;
21979;SDS011;11154;48.558;9.234;2023-04-25T05:38:34;2.97;;;1.85;;
21979;SDS011;11154;48.558;9.234;2023-04-25T05:40:35;4.00;;;2.17;;
21979;SDS011;11154;48.558;9.234;2023-04-25T05:42:39;5.22;;;2.63;;
21979;SDS011;11154;48.558;9.234;2023-04-25T05:44:40;5.43;;;2.30;;
21979;SDS011;11154;48.558;9.234;2023-04-25T05:46:42;5.32;;;2.42;;
21979;SDS011;11154;48.558;9.234;2023-04-25T05:48:44;4.00;;;2.25;;
21979;SDS011;11154;48.558;9.234;2023-04-25T05:50:46;3.35;;;1.90;;
21979;SDS011;11154;48.558;9.234;2023-04-25T05:52:47;3.03;;;2.08;;
21979;SDS011;11154;48.558;9.234;2023-04-25T05:54:49;4.72;;;2.30;;
21979;SDS011;11154;48.558;9.234;2023-04-25T05:56:51;4.25;;;2.20;;
21979;SDS011;11154;48.558;9.234;2023-04-25T05:58:54;4.10;;;2.15;;
21979;SDS011;11154;48.558;9.234;2023-04-25T06:00:56;4.10;;;1.80;;
21979;SDS011;11154;48.558;9.234;2023-04-25T06:02:58;3.95;;;2.30;;
21979;SDS011;11154;48.558;9.234;2023-04-25T06:05:00;3.58;;;1.98;;
21979;SDS011;11154;48.558;9.234;2023-04-25T06:07:03;1.95;;;1.70;;
21979;SDS011;11154;48.558;9.234;2023-04-25T06:09:05;3.35;;;1.92;;
21979;SDS011;11154;48.558;9.234;2023-04-25T06:11:06;5.07;;;1.92;;
21979;SDS011;11154;48.558;9.234;2023-04-25T06:13:08;3.58;;;1.92;;
21979;SDS011;11154;48.558;9.234;2023-04-25T06:15:11;4.20;;;2.03;;
21979;SDS011;11154;48.558;9.234;2023-04-25T06:17:13;4.35;;;2.05;;
21979;SDS011;11154;48.558;9.234;2023-04-25T06:19:15;4.32;;;2.35;;
21979;SDS011;11154;48.558;9.234;2023-04-25T06:21:16;5.88;;;1.90;;
21979;SDS011;11154;48.558;9.234;2023-04-25T06:23:18;4.93;;;2.10;;
21979;SDS011;11154;48.558;9.234;2023-04-25T06:25:20;4.47;;;2.30;;
21979;SDS011;11154;48.558;9.234;2023-04-25T06:27:22;2.78;;;1.80;;
21979;SDS011;11154;48.558;9.234;2023-04-25T06:29:24;3.08;;;1.80;;
21979;SDS011;11154;48.558;9.234;2023-04-25T06:31:27;4.35;;;2.13;;
21979;SDS011;11154;48.558;9.234;2023-04-25T06:33:29;3.50;;;2.30;;
21979;SDS011;11154;48.558;9.234;2023-04-25T06:35:30;2.72;;;1.95;;
21979;SDS011;11154;48.558;9.234;2023-04-25T06:37:32;5.05;;;2.33;;
21979;SDS011;11154;48.558;9.234;2023-04-25T06:39:34;4.53;;;2.00;;
21979;SDS011;11154;48.558;9.234;2023-04-25T06:41:36;4.97;;;2.00;;
21979;SDS011;11154;48.558;9.234;2023-04-25T06:43:37;2.78;;;1.95;;
21979;SDS011;11154;48.558;9.234;2023-04-25T06:45:39;2.92;;;2.10;;
21979;SDS011;11154;48.558;9.234;2023-04-25T06:47:46;5.72;;;2.67;;
21979;SDS011;11154;48.558;9.234;2023-04-25T06:49:49;6.28;;;2.55;;
21979;SDS011;11154;48.558;9.234;2023-04-25T06:51:51;3.85;;;1.95;;
21979;SDS011;11154;48.558;9.234;2023-04-25T06:53:53;3.88;;;1.90;;
21979;SDS011;11154;48.558;9.234;2023-04-25T06:55:58;4.90;;;2.45;;
21979;SDS011;11154;48.558;9.234;2023-04-25T06:58:00;8.80;;;4.88;;
21979;SDS011;11154;48.558;9.234;2023-04-25T07:00:03;4.57;;;2.83;;
21979;SDS011;11154;48.558;9.234;2023-04-25T07:02:09;3.33;;;1.83;;
21979;SDS011;11154;48.558;9.234;2023-04-25T07:04:13;3.33;;;1.83;;
21979;SDS011;11154;48.558;9.234;2023-04-25T07:06:14;2.55;;;1.85;;
21979;SDS011;11154;48.558;9.234;2023-04-25T07:08:16;6.28;;;2.40;;
21979;SDS011;11154;48.558;9.234;2023-04-25T07:10:18;2.83;;;2.00;;
21979;SDS011;11154;48.558;9.234;2023-04-25T07:12:21;5.18;;;2.08;;
21979;SDS011;11154;48.558;9.234;2023-04-25T07:14:23;3.58;;;1.85;;
21979;SDS011;11154;48.558;9.234;2023-04-25T07:16:25;3.13;;;1.73;;
21979;SDS011;11154;48.558;9.234;2023-04-25T07:18:27;4.90;;;1.92;;
21979;SDS011;11154;48.558;9.234;2023-04-25T07:20:30;2.10;;;1.38;;
21979;SDS011;11154;48.558;9.234;2023-04-25T07:22:32;2.92;;;1.60;;
21979;SDS011;11154;48.558;9.234;2023-04-25T07:24:34;4.22;;;1.52;;
21979;SDS011;11154;48.558;9.234;2023-04-25T07:26:36;3.05;;;1.73;;
21979;SDS011;11154;48.558;9.234;2023-04-25T07:28:37;2.28;;;1.63;;
21979;SDS011;11154;48.558;9.234;2023-04-25T07:30:39;3.28;;;1.63;;
21979;SDS011;11154;48.558;9.234;2023-04-25T07:32:41;3.70;;;2.03;;
21979;SDS011;11154;48.558;9.234;2023-04-25T07:34:42;3.70;;;1.80;;
21979;SDS011;11154;48.558;9.234;2023-04-25T07:36:45;3.42;;;1.80;;
21979;SDS011;11154;48.558;9.234;2023-04-25T07:38:47;3.28;;;1.65;;
21979;SDS011;11154;48.558;9.234;2023-04-25T07:40:49;5.50;;;1.80;;
21979;SDS011;11154;48.558;9.234;2023-04-25T07:42:51;3.97;;;1.95;;
21979;SDS011;11154;48.558;9.234;2023-04-25T07:44:52;4.82;;;1.90;;
21979;SDS011;11154;48.558;9.234;2023-04-25T07:46:54;3.42;;;2.00;;
21979;SDS011;11154;48.558;9.234;2023-04-25T07:48:56;3.70;;;2.05;;
21979;SDS011;11154;48.558;9.234;2023-04-25T07:50:57;4.70;;;2.05;;
21979;SDS011;11154;48.558;9.234;2023-04-25T07:53:01;4.10;;;1.95;;
21979;SDS011;11154;48.558;9.234;2023-04-25T07:55:03;3.42;;;1.70;;
21979;SDS011;11154;48.558;9.234;2023-04-25T07:57:05;4.63;;;2.00;;
21979;SDS011;11154;48.558;9.234;2023-04-25T07:59:07;4.80;;;2.00;;
21979;SDS011;11154;48.558;9.234;2023-04-25T08:01:09;3.83;;;2.03;;
21979;SDS011;11154;48.558;9.234;2023-04-25T08:03:11;3.47;;;2.03;;
21979;SDS011;11154;48.558;9.234;2023-04-25T08:05:15;3.67;;;1.88;;
21979;SDS011;11154;48.558;9.234;2023-04-25T08:07:18;3.97;;;2.13;;
21979;SDS011;11154;48.558;9.234;2023-04-25T08:09:21;4.03;;;1.90;;
21979;SDS011;11154;48.558;9.234;2023-04-25T08:11:23;2.55;;;1.60;;
21979;SDS011;11154;48.558;9.234;2023-04-25T08:13:25;4.28;;;1.98;;
21979;SDS011;11154;48.558;9.234;2023-04-25T08:15:26;3.75;;;1.90;;
21979;SDS011;11154;48.558;9.234;2023-04-25T08:17:28;5.30;;;2.45;;
21979;SDS011;11154;48.558;9.234;2023-04-25T08:19:30;2.17;;;1.80;;
21979;SDS011;11154;48.558;9.234;2023-04-25T08:21:32;1.70;;;1.60;;
21979;SDS011;11154;48.558;9.234;2023-04-25T08:23:33;4.93;;;1.77;;
21979;SDS011;11154;48.558;9.234;2023-04-25T08:25:37;2.50;;;2.15;;
21979;SDS011;11154;48.558;9.234;2023-04-25T08:27:38;4.53;;;2.30;;
21979;SDS011;11154;48.558;9.234;2023-04-25T08:29:41;2.00;;;1.83;;
21979;SDS011;11154;48.558;9.234;2023-04-25T08:31:42;2.60;;;1.88;;
21979;SDS011;11154;48.558;9.234;2023-04-25T08:33:44;2.47;;;2.10;;
21979;SDS011;11154;48.558;9.234;2023-04-25T08:35:45;3.45;;;1.90;;
21979;SDS011;11154;48.558;9.234;2023-04-25T08:37:47;2.75;;;2.22;;
21979;SDS011;11154;48.558;9.234;2023-04-25T08:39:50;2.80;;;2.03;;
21979;SDS011;11154;48.558;9.234;2023-04-25T08:41:54;2.40;;;2.20;;
21979;SDS011;11154;48.558;9.234;2023-04-25T08:43:57;3.08;;;2.30;;
21979;SDS011;11154;48.558;9.234;2023-04-25T08:46:01;2.67;;;2.40;;
21979;SDS011;11154;48.558;9.234;2023-04-25T08:48:03;3.47;;;2.28;;
21979;SDS011;11154;48.558;9.234;2023-04-25T08:50:07;4.97;;;2.00;;
21979;SDS011;11154;48.558;9.234;2023-04-25T08:52:09;2.38;;;1.75;;
21979;SDS011;11154;48.558;9.234;2023-04-25T08:54:11;4.22;;;2.03;;
21979;SDS011;11154;48.558;9.234;2023-04-25T08:56:14;3.45;;;2.20;;
21979;SDS011;11154;48.558;9.234;2023-04-25T08:58:19;4.97;;;2.05;;
21979;SDS011;11154;48.558;9.234;2023-04-25T09:00:22;3.92;;;2.45;;
21979;SDS011;11154;48.558;9.234;2023-04-25T09:02:24;3.08;;;2.55;;
21979;SDS011;11154;48.558;9.234;2023-04-25T09:04:26;3.30;;;2.38;;
21979;SDS011;11154;48.558;9.234;2023-04-25T09:06:28;5.63;;;2.58;;
21979;SDS011;11154;48.558;9.234;2023-04-25T09:08:30;3.03;;;2.17;;
21979;SDS011;11154;48.558;9.234;2023-04-25T09:10:32;3.55;;;2.47;;
21979;SDS011;11154;48.558;9.234;2023-04-25T09:12:34;3.15;;;2.28;;
21979;SDS011;11154;48.558;9.234;2023-04-25T09:14:38;2.45;;;2.03;;
21979;SDS011;11154;48.558;9.234;2023-04-25T09:16:59;3.13;;;2.40;;
21979;SDS011;11154;48.558;9.234;2023-04-25T09:19:02;2.92;;;2.40;;
21979;SDS011;11154;48.558;9.234;2023-04-25T09:21:07;3.25;;;2.20;;
21979;SDS011;11154;48.558;9.234;2023-04-25T09:23:10;2.50;;;2.30;;
21979;SDS011;11154;48.558;9.234;2023-04-25T09:25:12;2.90;;;2.47;;
21979;SDS011;11154;48.558;9.234;2023-04-25T09:27:17;4.00;;;2.47;;
21979;SDS011;11154;48.558;9.234;2023-04-25T09:29:20;2.50;;;2.15;;
21979;SDS011;11154;48.558;9.234;2023-04-25T09:31:32;3.17;;;2.33;;
21979;SDS011;11154;48.558;9.234;2023-04-25T09:33:34;2.67;;;2.08;;
21979;SDS011;11154;48.558;9.234;2023-04-25T09:35:36;3.45;;;2.40;;
21979;SDS011;11154;48.558;9.234;2023-04-25T09:37:39;2.67;;;1.95;;
21979;SDS011;11154;48.558;9.234;2023-04-25T09:39:41;4.18;;;2.47;;
21979;SDS011;11154;48.558;9.234;2023-04-25T09:41:45;4.40;;;2.47;;
21979;SDS011;11154;48.558;9.234;2023-04-25T09:43:47;2.80;;;2.38;;
21979;SDS011;11154;48.558;9.234;2023-04-25T09:45:51;2.42;;;2.22;;
21979;SDS011;11154;48.558;9.234;2023-04-25T09:47:59;2.88;;;2.17;;
21979;SDS011;11154;48.558;9.234;2023-04-25T09:50:13;2.40;;;2.05;;
21979;SDS011;11154;48.558;9.234;2023-04-25T09:54:18;3.22;;;2.00;;
21979;SDS011;11154;48.558;9.234;2023-04-25T09:56:20;2.35;;;2.05;;
21979;SDS011;11154;48.558;9.234;2023-04-25T09:58:24;1.92;;;1.50;;
21979;SDS011;11154;48.558;9.234;2023-04-25T10:00:26;1.92;;;1.70;;
21979;SDS011;11154;48.558;9.234;2023-04-25T10:02:28;2.33;;;2.00;;
21979;SDS011;11154;48.558;9.234;2023-04-25T10:04:32;3.80;;;1.75;;
21979;SDS011;11154;48.558;9.234;2023-04-25T10:06:35;2.92;;;1.88;;
21979;SDS011;11154;48.558;9.234;2023-04-25T10:08:39;1.77;;;1.65;;
21979;SDS011;11154;48.558;9.234;2023-04-25T10:10:43;2.47;;;1.40;;
21979;SDS011;11154;48.558;9.234;2023-04-25T10:12:45;2.17;;;1.67;;
21979;SDS011;11154;48.558;9.234;2023-04-25T10:14:47;2.45;;;1.40;;
21979;SDS011;11154;48.558;9.234;2023-04-25T10:16:49;1.85;;;1.75;;
21979;SDS011;11154;48.558;9.234;2023-04-25T10:18:53;2.05;;;1.83;;
21979;SDS011;11154;48.558;9.234;2023-04-25T10:20:57;2.75;;;1.80;;
21979;SDS011;11154;48.558;9.234;2023-04-25T10:23:03;1.80;;;1.70;;
21979;SDS011;11154;48.558;9.234;2023-04-25T10:25:13;2.20;;;1.38;;
21979;SDS011;11154;48.558;9.234;2023-04-25T10:27:16;2.70;;;1.30;;
21979;SDS011;11154;48.558;9.234;2023-04-25T10:29:21;2.55;;;1.85;;
21979;SDS011;11154;48.558;9.234;2023-04-25T10:31:26;2.97;;;1.70;;
21979;SDS011;11154;48.558;9.234;2023-04-25T10:33:34;1.38;;;1.20;;
21979;SDS011;11154;48.558;9.234;2023-04-25T10:35:36;1.20;;;1.10;;
21979;SDS011;11154;48.558;9.234;2023-04-25T10:40:07;1.50;;;1.00;;
21979;SDS011;11154;48.558;9.234;2023-04-25T10:42:11;1.85;;;0.88;;
21979;SDS011;11154;48.558;9.234;2023-04-25T10:44:13;1.20;;;1.00;;
21979;SDS011;11154;48.558;9.234;2023-04-25T10:46:16;1.83;;;0.75;;
21979;SDS011;11154;48.558;9.234;2023-04-25T10:48:24;0.88;;;0.75;;
21979;SDS011;11154;48.558;9.234;2023-04-25T10:50:30;1.08;;;0.70;;
21979;SDS011;11154;48.558;9.234;2023-04-25T10:52:38;0.50;;;0.50;;
21979;SDS011;11154;48.558;9.234;2023-04-25T10:54:42;0.68;;;0.38;;
21979;SDS011;11154;48.558;9.234;2023-04-25T10:56:48;0.30;;;0.30;;
21979;SDS011;11154;48.558;9.234;2023-04-25T10:58:50;1.00;;;0.20;;
21979;SDS011;11154;48.558;9.234;2023-04-25T11:00:52;0.30;;;0.20;;
21979;SDS011;11154;48.558;9.234;2023-04-25T11:02:57;0.32;;;0.32;;
21979;SDS011;11154;48.558;9.234;2023-04-25T11:05:00;0.30;;;0.30;;
21979;SDS011;11154;48.558;9.234;2023-04-25T11:07:07;0.25;;;0.25;;
21979;SDS011;11154;48.558;9.234;2023-04-25T11:09:14;1.30;;;0.45;;
21979;SDS011;11154;48.558;9.234;2023-04-25T11:11:18;2.22;;;0.68;;
21979;SDS011;11154;48.558;9.234;2023-04-25T11:13:20;0.65;;;0.60;;
21979;SDS011;11154;48.558;9.234;2023-04-25T11:15:22;1.15;;;0.50;;
21979;SDS011;11154;48.558;9.234;2023-04-25T11:17:24;1.63;;;0.60;;
21979;SDS011;11154;48.558;9.234;2023-04-25T11:19:27;2.63;;;0.70;;
21979;SDS011;11154;48.558;9.234;2023-04-25T11:21:30;0.63;;;0.60;;
21979;SDS011;11154;48.558;9.234;2023-04-25T11:23:32;0.60;;;0.60;;
21979;SDS011;11154;48.558;9.234;2023-04-25T11:25:34;0.50;;;0.50;;
21979;SDS011;11154;48.558;9.234;2023-04-25T11:27:39;0.45;;;0.38;;
21979;SDS011;11154;48.558;9.234;2023-04-25T11:29:51;0.30;;;0.30;;
21979;SDS011;11154;48.558;9.234;2023-04-25T11:31:52;0.40;;;0.40;;
21979;SDS011;11154;48.558;9.234;2023-04-25T11:33:57;0.50;;;0.40;;
21979;SDS011;11154;48.558;9.234;2023-04-25T11:35:59;1.13;;;0.50;;
21979;SDS011;11154;48.558;9.234;2023-04-25T11:38:04;0.60;;;0.40;;
21979;SDS011;11154;48.558;9.234;2023-04-25T11:40:06;0.45;;;0.45;;
21979;SDS011;11154;48.558;9.234;2023-04-25T11:42:09;0.80;;;0.50;;
21979;SDS011;11154;48.558;9.234;2023-04-25T11:44:12;0.90;;;0.68;;
21979;SDS011;11154;48.558;9.234;2023-04-25T11:46:16;0.50;;;0.50;;
21979;SDS011;11154;48.558;9.234;2023-04-25T11:48:20;0.60;;;0.57;;
21979;SDS011;11154;48.558;9.234;2023-04-25T11:50:21;0.30;;;0.30;;
21979;SDS011;11154;48.558;9.234;2023-04-25T11:52:23;1.10;;;0.50;;
21979;SDS011;11154;48.558;9.234;2023-04-25T11:54:25;0.35;;;0.30;;
21979;SDS011;11154;48.558;9.234;2023-04-25T11:56:27;0.45;;;0.30;;
21979;SDS011;11154;48.558;9.234;2023-04-25T11:58:29;0.50;;;0.22;;
21979;SDS011;11154;48.558;9.234;2023-04-25T12:00:32;1.73;;;1.10;;
21979;SDS011;11154;48.558;9.234;2023-04-25T12:02:34;1.25;;;0.85;;
21979;SDS011;11154;48.558;9.234;2023-04-25T12:04:36;0.38;;;0.30;;
21979;SDS011;11154;48.558;9.234;2023-04-25T12:06:38;0.50;;;0.45;;
21979;SDS011;11154;48.558;9.234;2023-04-25T12:11:01;1.40;;;0.43;;
21979;SDS011;11154;48.558;9.234;2023-04-25T12:13:17;0.47;;;0.38;;
21979;SDS011;11154;48.558;9.234;2023-04-25T12:15:22;0.47;;;0.40;;
21979;SDS011;11154;48.558;9.234;2023-04-25T12:17:28;0.40;;;0.30;;
21979;SDS011;11154;48.558;9.234;2023-04-25T12:19:31;0.40;;;0.25;;
21979;SDS011;11154;48.558;9.234;2023-04-25T12:21:34;0.80;;;0.40;;
21979;SDS011;11154;48.558;9.234;2023-04-25T12:23:38;0.82;;;0.60;;
21979;SDS011;11154;48.558;9.234;2023-04-25T12:25:42;0.50;;;0.30;;